Time;durP1;ratioP1;P1;durP2;ratioP2;P2;SDS_P1;SDS_P2;PMS_P1;PMS_P2;Temp;Humidity;BMP_temperature;BMP_pressure;BME280_temperature;BME280_humidity;BME280_pressure;Samples;Min_cycle;Max_cycle;Signal;HPM_P1;HPM_P2
2022/10/12 00:00:15;;;;;;;11.33;2.70;;;;;;;13.31;61.93;101380.44;5017589;28;20312;-60
2022/10/12 00:02:42;;;;;;;10.47;2.30;;;;;;;13.23;62.49;101383.00;5016979;28;20219;-59
2022/10/12 00:05:10;;;;;;;9.07;2.50;;;;;;;13.15;62.64;101373.06;5018648;28;20222;-61
2022/10/12 00:07:39;;;;;;;12.33;2.77;;;;;;;13.17;62.79;101374.59;5016302;28;20209;-60
2022/10/12 00:10:08;;;;;;;8.77;2.30;;;;;;;13.17;62.79;101376.44;5020357;28;20293;-61
2022/10/12 00:12:35;;;;;;;10.60;2.23;;;;;;;13.06;62.97;101372.06;5016062;28;20237;-60
2022/10/12 00:15:05;;;;;;;8.30;2.60;;;;;;;13.05;62.96;101383.69;5019353;28;20218;-61
2022/10/12 00:17:32;;;;;;;10.30;2.60;;;;;;;13.09;62.57;101376.28;5018539;28;20911;-60
2022/10/12 00:20:00;;;;;;;6.10;2.17;;;;;;;13.12;62.81;101375.97;5019472;28;20213;-60
2022/10/12 00:22:27;;;;;;;9.63;2.47;;;;;;;13.09;62.58;101373.63;5045770;28;20277;-61
2022/10/12 00:24:57;;;;;;;6.47;2.07;;;;;;;13.06;62.87;101374.72;5060064;28;20217;-61
2022/10/12 00:27:24;;;;;;;7.53;2.13;;;;;;;13.02;62.47;101373.31;5057942;28;20240;-60
2022/10/12 00:29:52;;;;;;;9.67;2.57;;;;;;;12.96;63.02;101375.72;5058079;28;20213;-61
2022/10/12 00:32:21;;;;;;;9.93;2.73;;;;;;;12.94;63.00;101381.16;5052675;28;20212;-62
2022/10/12 00:34:49;;;;;;;9.37;2.47;;;;;;;12.94;62.93;101380.34;5050326;28;21251;-60
2022/10/12 00:37:17;;;;;;;10.47;2.43;;;;;;;12.88;63.42;101379.09;5051341;28;20229;-61
2022/10/12 00:39:44;;;;;;;9.07;2.47;;;;;;;12.87;63.28;101372.06;5052036;28;20222;-60
2022/10/12 00:42:13;;;;;;;9.33;3.77;;;;;;;12.90;63.26;101377.13;5058951;28;20541;-61
2022/10/12 00:44:43;;;;;;;6.00;2.13;;;;;;;12.87;63.25;101372.06;5054964;28;20204;-60
2022/10/12 00:47:18;;;;;;;8.80;1.97;;;;;;;12.83;63.66;101362.72;5054988;28;20691;-62
2022/10/12 00:49:50;;;;;;;10.10;2.40;;;;;;;12.83;63.73;101368.03;5050877;28;20207;-61
2022/10/12 00:52:22;;;;;;;7.60;2.50;;;;;;;12.80;63.54;101370.97;5054859;28;20210;-61
2022/10/12 00:54:52;;;;;;;9.63;2.20;;;;;;;12.78;63.75;101364.94;5049161;28;20289;-60
2022/10/12 00:57:22;;;;;;;8.50;2.20;;;;;;;12.81;63.87;101375.31;5051698;28;20227;-59
2022/10/12 00:59:53;;;;;;;10.87;2.10;;;;;;;12.71;64.08;101369.16;5054215;28;20697;-60
2022/10/12 01:02:23;;;;;;;7.47;1.70;;;;;;;12.70;64.30;101367.47;5053808;28;20241;-61
2022/10/12 01:04:52;;;;;;;12.43;2.30;;;;;;;12.72;64.15;101374.34;5052914;28;20215;-61
2022/10/12 01:07:19;;;;;;;7.30;2.37;;;;;;;12.71;64.41;101369.16;5050657;28;20232;-61
2022/10/12 01:09:48;;;;;;;9.30;2.60;;;;;;;12.60;64.37;101375.44;5053446;28;20227;-61
2022/10/12 01:12:16;;;;;;;7.90;2.20;;;;;;;12.59;64.31;101371.09;5056368;28;20228;-62
2022/10/12 01:14:45;;;;;;;8.40;2.13;;;;;;;12.56;64.22;101368.72;5055035;28;20810;-60
2022/10/12 01:17:22;;;;;;;11.77;2.57;;;;;;;12.56;64.17;101376.72;5051517;28;20260;-61
2022/10/12 01:20:23;;;;;;;8.97;2.10;;;;;;;12.56;64.45;101382.03;5051092;28;20272;-61
2022/10/12 01:23:04;;;;;;;5.83;2.10;;;;;;;12.54;64.50;101383.16;5040810;28;20311;-60
2022/10/12 01:25:50;;;;;;;10.47;2.40;;;;;;;12.52;64.52;101383.28;5051133;28;20545;-60
2022/10/12 01:28:27;;;;;;;8.30;2.53;;;;;;;12.47;64.47;101388.19;5047561;28;20209;-61
2022/10/12 01:31:03;;;;;;;6.53;2.03;;;;;;;12.47;64.61;101388.19;5056608;28;20664;-61
2022/10/12 01:33:36;;;;;;;10.17;2.40;;;;;;;12.38;64.68;101384.53;5058145;28;20208;-60
2022/10/12 01:36:13;;;;;;;11.10;2.43;;;;;;;12.43;64.59;101381.44;5053500;28;20213;-60
2022/10/12 01:38:48;;;;;;;10.87;2.30;;;;;;;12.39;65.00;101375.56;5053082;28;20277;-61
2022/10/12 01:41:21;;;;;;;9.57;2.63;;;;;;;12.33;64.76;101365.47;5047286;28;20199;-60
2022/10/12 01:43:51;;;;;;;7.47;2.50;;;;;;;12.29;65.14;101369.41;5055912;28;20244;-62
2022/10/12 01:46:43;;;;;;;7.57;2.27;;;;;;;12.26;65.07;101372.31;5056472;28;20227;-60
2022/10/12 01:49:14;;;;;;;9.10;2.13;;;;;;;12.13;65.40;101363.78;5051874;28;20204;-60
2022/10/12 01:51:58;;;;;;;8.57;2.43;;;;;;;12.08;65.60;101371.28;5048661;28;20212;-61
2022/10/12 01:54:34;;;;;;;9.77;2.10;;;;;;;12.05;65.54;101374.22;5054223;28;20215;-60
2022/10/12 01:57:08;;;;;;;7.23;2.20;;;;;;;12.04;65.68;101364.59;5056971;28;20220;-60
2022/10/12 01:59:47;;;;;;;11.97;2.37;;;;;;;12.10;65.39;101374.66;5055337;28;20243;-61
2022/10/12 02:02:24;;;;;;;7.37;2.33;;;;;;;12.05;65.46;101367.09;5054034;28;20649;-61
2022/10/12 02:04:59;;;;;;;10.13;2.83;;;;;;;12.06;65.68;101362.59;5056065;28;20207;-60
2022/10/12 02:07:35;;;;;;;16.10;2.60;;;;;;;11.96;65.97;101361.78;5055992;28;20276;-62
2022/10/12 02:10:07;;;;;;;9.90;2.77;;;;;;;11.90;66.16;101362.28;5054108;28;20221;-60
2022/10/12 02:12:39;;;;;;;8.07;2.10;;;;;;;11.88;66.17;101354.44;5051536;28;20234;-60
2022/10/12 02:15:08;;;;;;;14.20;3.17;;;;;;;11.89;66.33;101349.97;5053690;28;20276;-60
2022/10/12 02:17:39;;;;;;;9.57;2.47;;;;;;;11.83;66.20;101359.34;5054865;28;20722;-60
2022/10/12 02:20:11;;;;;;;7.20;2.70;;;;;;;11.83;66.44;101348.69;5058861;28;20326;-60
2022/10/12 02:22:41;;;;;;;13.30;3.10;;;;;;;11.83;66.59;101355.84;5056422;28;20888;-61
2022/10/12 02:25:12;;;;;;;10.10;2.30;;;;;;;11.85;66.31;101351.22;5055250;28;20677;-60
2022/10/12 02:27:44;;;;;;;7.60;2.27;;;;;;;11.84;66.21;101341.56;5048594;28;20223;-61
2022/10/12 02:30:12;;;;;;;9.73;3.10;;;;;;;11.82;66.31;101340.88;5056608;28;20214;-60
2022/10/12 02:32:50;;;;;;;10.13;2.87;;;;;;;11.86;66.10;101339.63;5053446;28;20208;-61
2022/10/12 02:35:24;;;;;;;8.70;2.90;;;;;;;11.83;66.30;101340.72;5052089;28;20589;-61
2022/10/12 02:37:56;;;;;;;12.93;2.30;;;;;;;11.92;66.20;101333.75;5053457;28;20212;-61
2022/10/12 02:40:30;;;;;;;9.57;2.37;;;;;;;11.88;66.20;101335.00;5057810;28;20214;-61
2022/10/12 02:43:03;;;;;;;8.27;2.67;;;;;;;11.81;66.62;101340.03;5050033;28;20404;-60
2022/10/12 02:45:39;;;;;;;11.93;2.67;;;;;;;11.83;66.77;101329.25;5052099;28;20833;-61
2022/10/12 02:48:11;;;;;;;9.30;2.17;;;;;;;11.84;66.83;101337.09;5051627;28;20235;-61
2022/10/12 02:50:39;;;;;;;10.20;2.63;;;;;;;11.89;66.58;101324.22;5048868;28;20646;-61
2022/10/12 02:53:07;;;;;;;10.67;2.87;;;;;;;11.86;66.77;101326.34;5052459;28;20218;-61
2022/10/12 02:55:38;;;;;;;8.53;2.73;;;;;;;11.87;66.61;101322.72;5048117;28;20614;-62
2022/10/12 02:58:05;;;;;;;6.70;2.47;;;;;;;11.85;66.84;101322.00;5049044;28;20210;-60
2022/10/12 03:00:34;;;;;;;9.80;2.77;;;;;;;11.85;67.10;101319.34;5049884;28;20726;-61
2022/10/12 03:03:01;;;;;;;16.73;3.50;;;;;;;11.88;66.85;101313.72;5044897;28;20266;-61
2022/10/12 03:05:32;;;;;;;8.53;2.50;;;;;;;11.86;67.10;101313.06;5050882;28;20215;-61
2022/10/12 03:08:00;;;;;;;11.30;3.10;;;;;;;11.87;67.04;101315.59;5051013;28;20293;-61
2022/10/12 03:10:27;;;;;;;8.40;3.00;;;;;;;11.85;67.62;101311.38;5051506;28;20710;-61
2022/10/12 03:12:55;;;;;;;11.90;3.10;;;;;;;11.83;67.83;101303.53;5050405;28;20250;-61
2022/10/12 03:15:22;;;;;;;8.23;2.83;;;;;;;11.85;67.60;101311.38;5046831;28;20211;-61
2022/10/12 03:17:51;;;;;;;8.70;2.60;;;;;;;11.90;67.61;101309.97;5047716;28;20212;-61
2022/10/12 03:20:18;;;;;;;9.00;3.23;;;;;;;11.90;67.64;101317.09;5045158;28;20204;-60
2022/10/12 03:22:49;;;;;;;6.80;2.60;;;;;;;11.89;67.63;101313.59;5046287;28;20267;-60
2022/10/12 03:25:17;;;;;;;8.03;2.83;;;;;;;11.88;67.79;101308.41;5049479;28;20237;-60
2022/10/12 03:27:45;;;;;;;7.87;3.07;;;;;;;11.91;67.93;101319.63;5047071;28;20752;-61
2022/10/12 03:30:13;;;;;;;11.37;3.40;;;;;;;11.93;67.68;101316.84;5047754;28;20577;-61
2022/10/12 03:32:41;;;;;;;9.43;3.87;;;;;;;11.94;67.73;101318.53;5054575;28;20238;-60
2022/10/12 03:35:09;;;;;;;8.77;3.00;;;;;;;11.91;67.83;101316.13;5051560;28;20215;-61
2022/10/12 03:37:37;;;;;;;14.50;3.10;;;;;;;11.88;68.17;101321.72;5051832;28;20246;-62
2022/10/12 03:40:08;;;;;;;11.60;3.07;;;;;;;11.84;68.16;101326.47;5060690;28;20220;-60
2022/10/12 03:42:36;;;;;;;11.27;2.60;;;;;;;11.82;67.95;101322.25;5051111;28;20289;-59
2022/10/12 03:45:04;;;;;;;9.53;3.37;;;;;;;11.91;67.77;101329.41;5054436;28;20211;-61
2022/10/12 03:47:31;;;;;;;9.90;2.83;;;;;;;11.90;67.74;101325.06;5055335;28;20606;-61
2022/10/12 03:49:59;;;;;;;15.17;3.63;;;;;;;11.89;67.55;101328.72;5055372;28;20210;-61
2022/10/12 03:52:27;;;;;;;9.27;2.87;;;;;;;11.84;67.94;101320.31;5047899;28;20210;-62
2022/10/12 03:54:54;;;;;;;7.77;3.00;;;;;;;11.87;67.48;101323.56;5057548;28;20263;-61
2022/10/12 03:57:24;;;;;;;12.43;3.37;;;;;;;11.92;67.26;101323.97;5054923;28;20216;-61
2022/10/12 03:59:51;;;;;;;8.50;2.93;;;;;;;11.91;67.16;101326.75;5062713;28;20261;-60
2022/10/12 04:02:19;;;;;;;15.30;2.80;;;;;;;11.88;67.29;101332.34;5058306;28;20223;-60
2022/10/12 04:04:46;;;;;;;13.93;2.90;;;;;;;11.84;67.16;101330.94;5059315;28;20211;-62
2022/10/12 04:07:14;;;;;;;10.07;2.50;;;;;;;11.81;67.07;101325.88;5057461;28;20211;-60
2022/10/12 04:09:42;;;;;;;10.20;3.60;;;;;;;11.82;67.27;101333.72;5058171;28;20210;-60
2022/10/12 04:12:09;;;;;;;9.97;2.83;;;;;;;11.84;67.29;101331.78;5055726;28;20300;-61
2022/10/12 04:14:39;;;;;;;8.73;2.20;;;;;;;11.87;66.79;101331.53;5057581;28;20263;-61
2022/10/12 04:17:06;;;;;;;6.70;2.80;;;;;;;11.78;67.09;101328.84;5052590;28;20957;-60
2022/10/12 04:19:34;;;;;;;9.37;2.67;;;;;;;11.79;67.03;101334.00;5054315;28;20246;-61
2022/10/12 04:22:01;;;;;;;7.30;2.90;;;;;;;11.77;67.13;101335.13;5051989;28;20244;-60
2022/10/12 04:24:29;;;;;;;6.37;2.73;;;;;;;11.75;67.28;101329.94;5050979;28;20219;-61
2022/10/12 04:26:57;;;;;;;8.90;3.00;;;;;;;11.74;66.85;101324.72;5054450;28;20740;-60
2022/10/12 04:29:24;;;;;;;9.00;2.33;;;;;;;11.74;66.92;101324.72;5052862;28;20238;-60
2022/10/12 04:31:53;;;;;;;8.87;2.77;;;;;;;11.70;66.75;101327.63;5054945;28;20206;-61
2022/10/12 04:34:22;;;;;;;12.73;3.30;;;;;;;11.60;67.31;101334.75;5055558;28;20882;-61
2022/10/12 04:36:50;;;;;;;9.17;2.30;;;;;;;11.58;67.47;101331.38;5061603;28;20203;-61
2022/10/12 04:39:17;;;;;;;9.53;2.80;;;;;;;11.62;66.88;101321.31;5053755;28;20571;-60
2022/10/12 04:41:45;;;;;;;7.63;2.80;;;;;;;11.65;67.07;101327.22;5060652;28;20202;-61
2022/10/12 04:44:12;;;;;;;10.10;2.93;;;;;;;11.66;67.03;101326.25;5059640;28;20217;-62
2022/10/12 04:46:40;;;;;;;9.50;2.80;;;;;;;11.58;67.33;101336.69;5061130;28;20211;-60
2022/10/12 04:49:09;;;;;;;6.67;2.27;;;;;;;11.55;67.03;101331.66;5058086;28;20273;-60
2022/10/12 04:51:37;;;;;;;10.57;3.17;;;;;;;11.55;67.12;101336.94;5054754;28;20210;-61
2022/10/12 04:54:04;;;;;;;9.53;2.80;;;;;;;11.49;67.63;101336.66;5057740;28;20226;-60
2022/10/12 04:56:32;;;;;;;6.10;2.63;;;;;;;11.45;67.51;101335.22;5051679;28;20987;-60
2022/10/12 04:59:00;;;;;;;10.33;2.80;;;;;;;11.47;67.43;101330.63;5052867;28;20299;-61
2022/10/12 05:01:27;;;;;;;10.03;2.47;;;;;;;11.43;67.51;101339.84;5051597;28;20207;-61
2022/10/12 05:03:55;;;;;;;11.70;2.83;;;;;;;11.39;67.79;101346.38;5053388;28;20290;-61
2022/10/12 05:06:24;;;;;;;9.20;2.70;;;;;;;11.37;67.88;101333.22;5050210;28;20241;-61
2022/10/12 05:08:52;;;;;;;11.83;2.70;;;;;;;11.33;68.20;101342.44;5054983;28;20633;-61
2022/10/12 05:11:19;;;;;;;10.37;2.97;;;;;;;11.28;68.18;101337.53;5050481;28;20837;-61
2022/10/12 05:13:47;;;;;;;9.63;3.07;;;;;;;11.24;68.21;101335.28;5051500;28;20855;-61
2022/10/12 05:16:15;;;;;;;6.57;2.40;;;;;;;11.24;68.03;101338.78;5049611;28;20222;-61
2022/10/12 05:18:42;;;;;;;9.33;3.13;;;;;;;11.21;68.28;101338.19;5047254;28;20279;-61
2022/10/12 05:21:10;;;;;;;10.33;3.77;;;;;;;11.29;67.83;101330.41;5048209;28;20248;-62
2022/10/12 05:23:39;;;;;;;8.60;2.73;;;;;;;11.45;67.18;101336.06;5053580;28;20221;-61
2022/10/12 05:26:07;;;;;;;14.10;2.70;;;;;;;11.43;67.01;101332.72;5056663;28;20259;-60
2022/10/12 05:28:35;;;;;;;9.07;2.80;;;;;;;11.37;67.01;101341.19;5053830;28;20226;-61
2022/10/12 05:31:07;;;;;;;11.60;2.70;;;;;;;11.38;67.10;101340.22;5057055;28;20290;-60
2022/10/12 05:33:35;;;;;;;6.93;2.60;;;;;;;11.36;66.97;101341.31;5054586;28;20213;-61
2022/10/12 05:36:03;;;;;;;5.73;2.30;;;;;;;11.34;67.13;101344.13;5057437;28;20553;-61
2022/10/12 05:38:31;;;;;;;7.03;2.50;;;;;;;11.29;67.02;101343.69;5052817;28;20236;-60
2022/10/12 05:41:00;;;;;;;13.97;3.23;;;;;;;11.27;67.42;101337.66;5046935;28;20207;-61
2022/10/12 05:43:28;;;;;;;10.87;3.10;;;;;;;11.21;67.58;101333.72;5055601;28;20213;-61
2022/10/12 05:45:55;;;;;;;12.77;3.17;;;;;;;11.21;67.48;101339.03;5049818;28;20217;-61
2022/10/12 05:48:23;;;;;;;11.03;2.90;;;;;;;11.25;67.59;101344.94;5049979;28;20550;-62
2022/10/12 05:50:52;;;;;;;12.77;2.90;;;;;;;11.22;67.37;101353.13;5049825;28;20241;-62
2022/10/12 05:53:19;;;;;;;9.30;2.60;;;;;;;11.16;67.20;101351.88;5052979;28;20246;-61
2022/10/12 05:55:54;;;;;;;14.07;3.40;;;;;;;11.13;67.69;101346.81;5053291;28;20218;-62
2022/10/12 05:58:24;;;;;;;11.07;2.47;;;;;;;11.12;67.21;101350.44;5049427;28;20264;-61
2022/10/12 06:00:52;;;;;;;9.00;2.80;;;;;;;11.14;67.36;101347.66;5051683;28;20213;-62
2022/10/12 06:03:19;;;;;;;6.87;2.60;;;;;;;11.03;68.16;101343.25;5048200;28;20205;-61
2022/10/12 06:05:52;;;;;;;9.77;2.87;;;;;;;11.02;67.92;101340.72;5051105;28;20246;-61
2022/10/12 06:08:20;;;;;;;7.97;2.90;;;;;;;10.96;68.21;101344.75;5051175;28;21858;-62
2022/10/12 06:10:50;;;;;;;10.47;3.27;;;;;;;10.96;68.37;101354.50;5048368;28;20206;-62
2022/10/12 06:13:18;;;;;;;7.33;2.80;;;;;;;11.04;68.25;101360.84;5052501;28;20932;-62
2022/10/12 06:15:48;;;;;;;11.77;3.17;;;;;;;11.13;67.48;101359.22;5053622;28;20580;-60
2022/10/12 06:18:17;;;;;;;7.50;3.00;;;;;;;11.12;67.31;101363.69;5048785;28;20210;-61
2022/10/12 06:20:47;;;;;;;13.97;3.40;;;;;;;11.18;67.40;101349.06;5051750;28;20576;-63
2022/10/12 06:23:15;;;;;;;13.25;3.75;;;;;;;11.45;66.09;101352.00;5051367;28;20892;-62
2022/10/12 06:25:45;;;;;;;13.33;4.03;;;;;;;11.29;66.35;101355.13;5052896;28;20208;-61
2022/10/12 06:28:12;;;;;;;6.27;2.77;;;;;;;11.20;66.97;101352.44;5048238;28;20313;-61
2022/10/12 06:30:40;;;;;;;14.30;2.90;;;;;;;11.20;67.15;101353.25;5052430;28;20318;-61
2022/10/12 06:33:09;;;;;;;12.03;2.47;;;;;;;11.27;66.60;101364.19;5052537;28;20210;-62
2022/10/12 06:35:37;;;;;;;9.47;3.20;;;;;;;11.22;66.47;101361.09;5048329;28;20215;-61
2022/10/12 06:38:05;;;;;;;8.80;3.33;;;;;;;11.24;66.44;101343.25;5058660;28;20583;-61
2022/10/12 06:40:33;;;;;;;10.43;2.93;;;;;;;11.28;66.46;101349.94;5057601;28;20709;-62
2022/10/12 06:43:01;;;;;;;12.47;3.57;;;;;;;11.26;66.57;101347.44;5058458;28;20702;-62
2022/10/12 06:45:29;;;;;;;7.70;3.03;;;;;;;11.36;66.45;101354.59;5056879;28;20213;-62
2022/10/12 06:47:57;;;;;;;16.77;3.33;;;;;;;11.38;66.37;101355.31;5052744;28;20211;-61
2022/10/12 06:50:27;;;;;;;15.27;3.30;;;;;;;11.35;66.64;101361.72;5053784;28;20290;-61
2022/10/12 06:52:54;;;;;;;16.03;3.83;;;;;;;11.27;66.94;101364.19;5047814;28;20217;-62
2022/10/12 06:55:22;;;;;;;10.43;3.40;;;;;;;11.36;66.55;101360.75;5051522;28;20214;-62
2022/10/12 06:57:50;;;;;;;11.43;3.00;;;;;;;11.36;66.81;101366.06;5047719;28;20619;-62
2022/10/12 07:00:18;;;;;;;9.73;3.40;;;;;;;11.38;66.93;101356.16;5059182;28;20225;-62
2022/10/12 07:02:48;;;;;;;9.80;2.77;;;;;;;11.43;66.60;101369.06;5057121;28;20217;-62
2022/10/12 07:05:16;;;;;;;15.10;3.73;;;;;;;11.50;66.33;101365.75;5045141;28;20210;-60
2022/10/12 07:07:45;;;;;;;9.47;3.27;;;;;;;11.43;66.37;101359.28;5049869;28;21321;-62
2022/10/12 07:10:13;;;;;;;9.00;3.07;;;;;;;11.47;66.85;101355.38;5048256;28;20246;-62
2022/10/12 07:12:41;;;;;;;8.73;3.10;;;;;;;11.61;66.48;101362.13;5047324;28;20221;-62
2022/10/12 07:15:09;;;;;;;18.73;3.90;;;;;;;11.66;66.24;101352.81;5055775;28;20210;-62
2022/10/12 07:17:37;;;;;;;9.83;3.90;;;;;;;11.74;65.73;101362.75;5056637;28;20214;-62
2022/10/12 07:20:06;;;;;;;9.47;3.67;;;;;;;11.81;65.71;101363.09;5057991;28;20206;-62
2022/10/12 07:22:34;;;;;;;13.03;4.50;;;;;;;11.89;65.14;101365.91;5057180;28;20293;-62
2022/10/12 07:25:03;;;;;;;17.50;4.17;;;;;;;11.98;64.83;101365.09;5054627;28;20778;-62
2022/10/12 07:27:31;;;;;;;11.83;4.03;;;;;;;11.97;65.15;101371.41;5056861;28;20206;-62
2022/10/12 07:29:58;;;;;;;10.03;2.90;;;;;;;12.09;64.71;101369.47;5055237;28;20273;-61
2022/10/12 07:32:26;;;;;;;11.17;4.00;;;;;;;12.16;64.50;101368.78;5054755;28;20205;-61
2022/10/12 07:34:54;;;;;;;12.63;3.60;;;;;;;12.23;64.46;101369.94;5052107;28;20215;-62
2022/10/12 07:37:22;;;;;;;10.27;4.03;;;;;;;12.24;64.61;101366.28;5056928;28;20218;-62
2022/10/12 07:39:55;;;;;;;12.13;4.30;;;;;;;12.22;64.64;101375.41;5054356;28;20825;-63
2022/10/12 07:42:25;;;;;;;10.63;3.63;;;;;;;12.28;64.75;101372.19;5054225;28;20434;-62
2022/10/12 07:44:52;;;;;;;7.70;3.47;;;;;;;12.39;64.35;101370.25;5048124;28;20212;-61
2022/10/12 07:47:20;;;;;;;9.53;3.37;;;;;;;12.43;64.06;101371.66;5052823;28;20238;-61
2022/10/12 07:49:48;;;;;;;8.43;3.60;;;;;;;12.44;64.28;101376.00;5051918;28;20768;-62
2022/10/12 07:52:15;;;;;;;12.70;4.23;;;;;;;12.50;64.38;101374.59;5052152;28;20211;-61
2022/10/12 07:54:43;;;;;;;13.13;4.70;;;;;;;12.57;64.10;101378.41;5050582;28;20204;-62
2022/10/12 07:57:11;;;;;;;8.93;3.70;;;;;;;12.62;63.97;101380.63;5058233;28;20207;-61
2022/10/12 07:59:40;;;;;;;9.47;3.63;;;;;;;12.66;64.40;101387.38;5058645;28;20207;-61
2022/10/12 08:02:09;;;;;;;9.43;3.30;;;;;;;12.67;64.78;101383.69;5051732;28;20251;-63
2022/10/12 08:04:37;;;;;;;11.63;3.30;;;;;;;12.74;64.37;101384.84;5056518;28;20307;-61
2022/10/12 08:07:04;;;;;;;13.40;3.67;;;;;;;12.79;64.26;101388.75;5055406;28;20250;-62
2022/10/12 08:09:34;;;;;;;13.67;3.60;;;;;;;12.96;64.17;101384.53;5057585;28;20212;-62
2022/10/12 08:12:03;;;;;;;17.07;3.20;;;;;;;13.08;63.66;101393.22;5053781;28;20223;-62
2022/10/12 08:14:30;;;;;;;12.67;3.40;;;;;;;13.19;63.63;101391.25;5057441;28;20219;-60
2022/10/12 08:16:59;;;;;;;10.70;3.93;;;;;;;13.27;63.56;101395.06;5055530;28;20199;-62
2022/10/12 08:19:27;;;;;;;12.47;3.63;;;;;;;13.34;63.67;101391.69;5053344;28;20219;-61
2022/10/12 08:22:01;;;;;;;9.87;3.90;;;;;;;13.47;63.02;101384.19;5052795;28;20319;-61
2022/10/12 08:24:29;;;;;;;12.13;3.83;;;;;;;13.56;62.61;101387.81;5051303;28;20502;-62
2022/10/12 08:26:57;;;;;;;7.97;3.20;;;;;;;13.70;62.41;101384.69;5055710;28;20220;-61
2022/10/12 08:29:28;;;;;;;15.13;3.93;;;;;;;13.86;61.32;101384.91;5055079;28;20216;-59
2022/10/12 08:31:55;;;;;;;9.37;3.17;;;;;;;13.86;61.63;101384.91;5053025;28;20395;-62
2022/10/12 08:34:24;;;;;;;12.23;3.80;;;;;;;13.91;61.49;101379.13;5057698;28;20219;-61
2022/10/12 08:36:52;;;;;;;13.47;4.00;;;;;;;14.00;61.10;101377.38;5055509;28;20877;-63
2022/10/12 08:39:20;;;;;;;9.40;3.47;;;;;;;14.06;61.20;101369.66;5059779;28;20261;-62
2022/10/12 08:41:58;;;;;;;12.60;3.83;;;;;;;14.22;60.86;101358.31;5057253;28;20216;-62
2022/10/12 08:44:44;;;;;;;11.97;3.90;;;;;;;14.50;59.66;101362.66;5053891;28;20617;-61
2022/10/12 08:47:16;;;;;;;12.00;3.30;;;;;;;14.75;58.93;101371.72;5054435;28;20203;-61
2022/10/12 08:49:48;;;;;;;12.63;3.63;;;;;;;15.10;58.37;101357.50;5056380;28;20253;-62
2022/10/12 08:52:27;;;;;;;10.50;3.70;;;;;;;15.17;58.12;101361.22;5048799;28;20294;-62
2022/10/12 08:55:00;;;;;;;10.73;3.83;;;;;;;15.71;57.92;101361.91;5053308;28;20219;-62
2022/10/12 08:57:27;;;;;;;9.03;3.67;;;;;;;18.15;51.17;101360.91;5058679;28;20223;-63
2022/10/12 08:59:55;;;;;;;11.60;4.10;;;;;;;20.14;45.98;101355.06;5051206;28;20279;-63
2022/10/12 09:02:44;;;;;;;13.57;3.57;;;;;;;22.17;40.71;101359.59;5047553;28;20212;-61
2022/10/12 09:05:19;;;;;;;13.33;3.57;;;;;;;22.59;39.43;101358.50;5052924;28;20274;-62
2022/10/12 09:07:54;;;;;;;10.13;3.70;;;;;;;21.53;40.86;101362.59;5055216;28;20219;-62
2022/10/12 09:10:33;;;;;;;8.27;3.50;;;;;;;20.71;43.07;101356.94;5060200;28;20227;-62
2022/10/12 09:13:07;;;;;;;9.90;3.57;;;;;;;20.33;44.01;101359.00;5055347;28;20228;-62
2022/10/12 09:15:38;;;;;;;8.93;3.50;;;;;;;19.62;45.96;101356.03;5054133;28;20210;-63
2022/10/12 09:18:14;;;;;;;10.63;3.60;;;;;;;19.24;46.28;101360.63;5054873;28;20344;-61
2022/10/12 09:20:47;;;;;;;13.23;4.00;;;;;;;18.75;47.18;101361.03;5052006;28;20237;-62
2022/10/12 09:23:23;;;;;;;9.53;3.93;;;;;;;18.29;48.61;101368.22;5057807;28;20290;-62
2022/10/12 09:25:52;;;;;;;13.03;4.30;;;;;;;17.83;50.37;101363.75;5052802;28;20844;-63
2022/10/12 09:28:26;;;;;;;10.40;3.37;;;;;;;17.52;52.11;101369.00;5051180;28;20215;-63
2022/10/12 09:31:06;;;;;;;10.80;4.17;;;;;;;17.33;52.58;101372.06;5052894;28;20273;-62
2022/10/12 09:33:41;;;;;;;9.90;4.07;;;;;;;16.99;52.75;101367.72;5055286;28;20211;-61
2022/10/12 09:36:16;;;;;;;9.00;4.37;;;;;;;16.80;54.04;101374.25;5056634;28;20324;-61
2022/10/12 09:38:43;;;;;;;11.37;4.30;;;;;;;16.68;54.03;101380.13;5053393;28;20561;-61
2022/10/12 09:41:19;;;;;;;15.03;4.70;;;;;;;16.66;54.60;101374.09;5061034;28;20641;-62
2022/10/12 09:43:49;;;;;;;11.17;4.20;;;;;;;16.66;54.95;101374.09;5052214;28;20211;-61
2022/10/12 09:46:24;;;;;;;8.33;4.00;;;;;;;16.50;54.83;101366.84;5059514;28;20287;-61
2022/10/12 09:48:59;;;;;;;10.20;3.57;;;;;;;16.46;55.32;101370.84;5053114;28;20648;-63
2022/10/12 09:51:29;;;;;;;10.63;4.03;;;;;;;16.42;55.98;101366.84;5054910;28;20282;-63
2022/10/12 09:54:02;;;;;;;10.87;4.73;;;;;;;16.37;55.72;101364.63;5063709;28;20207;-63
2022/10/12 09:56:35;;;;;;;10.70;3.50;;;;;;;16.28;55.68;101362.94;5054413;28;20342;-61
2022/10/12 09:59:05;;;;;;;14.40;5.20;;;;;;;16.31;55.64;101354.59;5058944;28;20200;-62
2022/10/12 10:01:34;;;;;;;8.00;4.07;;;;;;;16.42;55.61;101358.81;5061313;28;20207;-62
2022/10/12 10:04:14;;;;;;;17.90;4.27;;;;;;;16.48;55.45;101352.78;5060753;28;20208;-62
2022/10/12 10:06:45;;;;;;;13.53;4.10;;;;;;;16.48;55.43;101352.78;5060263;28;20211;-62
2022/10/12 10:09:37;;;;;;;15.43;4.13;;;;;;;16.47;55.50;101351.09;5060707;28;20665;-61
2022/10/12 10:12:22;;;;;;;11.97;4.40;;;;;;;16.47;56.32;101346.59;5038132;28;20253;-61
2022/10/12 10:14:52;;;;;;;13.07;3.30;;;;;;;16.46;56.81;101350.25;5059013;28;20212;-61
2022/10/12 10:17:25;;;;;;;14.30;4.53;;;;;;;16.51;56.97;101347.94;5054591;28;20219;-61
2022/10/12 10:19:55;;;;;;;10.17;4.13;;;;;;;16.58;56.21;101347.28;5051518;28;20653;-61
2022/10/12 10:22:25;;;;;;;14.07;4.63;;;;;;;16.56;56.69;101350.94;5054809;28;20239;-62
2022/10/12 10:24:54;;;;;;;11.80;3.73;;;;;;;16.49;56.81;101349.94;5054517;28;20208;-61
2022/10/12 10:27:35;;;;;;;11.63;4.00;;;;;;;16.39;56.89;101351.94;5054121;28;20222;-61
2022/10/12 10:30:26;;;;;;;13.00;4.40;;;;;;;16.44;57.09;101346.09;5058113;28;20206;-62
2022/10/12 10:33:14;;;;;;;10.80;4.70;;;;;;;16.59;57.80;101333.72;5058303;28;20230;-62
2022/10/12 10:35:56;;;;;;;10.17;4.70;;;;;;;17.21;56.03;101347.47;5050837;28;20207;-62
2022/10/12 10:38:26;;;;;;;10.80;4.33;;;;;;;17.28;55.19;101341.25;5057456;28;20680;-61
2022/10/12 10:40:56;;;;;;;13.40;5.13;;;;;;;17.23;55.81;101346.28;5055702;28;20586;-61
2022/10/12 10:43:27;;;;;;;11.13;4.77;;;;;;;17.15;55.80;101345.47;5050150;28;20220;-61
2022/10/12 10:45:58;;;;;;;9.37;4.70;;;;;;;17.06;56.53;101351.84;5054519;28;20204;-60
2022/10/12 10:48:29;;;;;;;10.90;4.80;;;;;;;16.97;56.97;101350.19;5048344;28;20251;-63
2022/10/12 10:51:00;;;;;;;11.53;4.90;;;;;;;16.93;57.40;101352.34;5053064;28;20325;-62
2022/10/12 10:53:34;;;;;;;11.10;5.07;;;;;;;16.99;58.58;101340.94;5051485;28;20211;-62
2022/10/12 10:56:05;;;;;;;11.67;4.77;;;;;;;16.99;58.59;101340.94;5053631;28;20211;-62
2022/10/12 10:58:37;;;;;;;12.43;4.93;;;;;;;17.02;57.73;101343.28;5054821;28;20212;-64
2022/10/12 11:01:18;;;;;;;12.00;5.00;;;;;;;16.98;58.21;101335.75;5046557;28;20207;-63
2022/10/12 11:03:54;;;;;;;12.87;4.77;;;;;;;16.93;59.27;101337.09;5047536;28;21567;-62
2022/10/12 11:06:32;;;;;;;16.47;5.40;;;;;;;17.20;58.32;101343.09;5049024;28;20218;-63
2022/10/12 11:09:07;;;;;;;8.33;4.20;;;;;;;17.57;56.81;101335.31;5050053;28;20663;-63
2022/10/12 11:11:37;;;;;;;13.50;4.63;;;;;;;17.94;55.59;101325.81;5049309;28;20483;-63
2022/10/12 11:14:14;;;;;;;9.23;4.77;;;;;;;19.05;52.66;101321.66;5051877;28;20799;-63
2022/10/12 11:16:48;;;;;;;12.30;5.43;;;;;;;20.74;48.53;101308.03;5050720;28;20883;-63
2022/10/12 11:19:30;;;;;;;9.77;4.93;;;;;;;22.74;44.38;101307.75;5055070;28;20257;-62
2022/10/12 11:22:02;;;;;;;11.77;4.77;;;;;;;23.86;41.82;101297.56;5053073;28;20239;-62
2022/10/12 11:24:40;;;;;;;14.17;5.90;;;;;;;23.52;42.76;101296.03;5058868;28;20222;-61
2022/10/12 11:27:13;;;;;;;13.00;6.33;;;;;;;22.85;43.74;101299.88;5058939;28;20207;-63
2022/10/12 11:29:41;;;;;;;13.15;6.43;;;;;;;22.43;45.43;101295.66;5057017;28;20204;-63
2022/10/12 11:32:21;;;;;;;16.95;6.20;;;;;;;23.56;43.21;101288.34;5053568;28;20238;-63
2022/10/12 11:34:53;;;;;;;14.45;6.47;;;;;;;24.02;41.69;101280.81;5056988;28;20208;-63
2022/10/12 11:37:25;;;;;;;11.68;5.95;;;;;;;24.28;41.12;101285.28;5051363;28;20688;-63